createdAt,value
2023-03-18T00:01:04.119Z,82.40
2023-03-18T00:03:32.719Z,82.40
2023-03-18T00:06:08.552Z,82.70
2023-03-18T00:08:37.180Z,82.50
2023-03-18T00:11:05.607Z,83.00
2023-03-18T00:13:33.776Z,83.10
2023-03-18T00:16:02.598Z,83.00
2023-03-18T00:18:31.288Z,83.20
2023-03-18T00:21:01.569Z,83.40
2023-03-18T00:23:31.459Z,83.50
2023-03-18T00:26:00.798Z,83.50
2023-03-18T00:28:28.545Z,83.50
2023-03-18T00:30:58.381Z,83.70
2023-03-18T00:33:25.809Z,83.90
2023-03-18T00:35:53.345Z,83.90
2023-03-18T00:38:22.063Z,83.90
2023-03-18T00:41:01.733Z,84.10
2023-03-18T00:43:33.815Z,84.40
2023-03-18T00:46:04.092Z,84.40
2023-03-18T00:48:32.235Z,84.40
2023-03-18T00:50:59.441Z,84.50
2023-03-18T00:53:26.485Z,84.60
2023-03-18T00:55:53.943Z,84.90
2023-03-18T00:58:22.461Z,84.80
2023-03-18T01:00:49.473Z,85.10
2023-03-18T01:03:17.513Z,85.10
2023-03-18T01:05:45.455Z,85.30
2023-03-18T01:08:12.660Z,85.50
2023-03-18T01:10:40.993Z,85.50
2023-03-18T01:13:09.766Z,85.50
2023-03-18T01:15:38.254Z,85.60
2023-03-18T01:18:07.143Z,85.70
2023-03-18T01:20:34.498Z,85.80
2023-03-18T01:23:01.864Z,86.00
2023-03-18T01:25:29.408Z,86.30
2023-03-18T01:27:56.876Z,86.30
2023-03-18T01:30:25.210Z,86.60
2023-03-18T01:32:54.570Z,86.40
2023-03-18T01:35:22.152Z,86.70
2023-03-18T01:37:52.016Z,86.60
2023-03-18T01:40:20.992Z,86.70
2023-03-18T01:42:57.959Z,86.90
2023-03-18T01:45:30.093Z,86.90
2023-03-18T01:47:59.894Z,87.00
2023-03-18T01:50:32.392Z,87.00
2023-03-18T01:53:07.954Z,87.30
2023-03-18T01:55:37.979Z,87.60
2023-03-18T01:58:13.478Z,87.80
2023-03-18T02:00:47.941Z,87.80
2023-03-18T02:03:22.443Z,87.80
2023-03-18T02:05:50.680Z,87.90
2023-03-18T02:08:21.649Z,87.90
2023-03-18T02:10:52.268Z,87.90
2023-03-18T02:13:20.116Z,88.10
2023-03-18T02:16:04.424Z,88.10
2023-03-18T02:18:45.794Z,88.20
2023-03-18T02:21:20.886Z,88.20
2023-03-18T02:24:30.032Z,88.10
2023-03-18T02:27:02.534Z,88.40
2023-03-18T02:29:39.042Z,88.20
2023-03-18T02:32:12.468Z,87.90
2023-03-18T02:34:41.465Z,88.20
2023-03-18T02:37:10.701Z,88.30
2023-03-18T02:39:41.065Z,88.50
2023-03-18T02:42:13.579Z,88.40
2023-03-18T02:44:47.693Z,88.80
2023-03-18T02:47:47.361Z,88.70
2023-03-18T02:50:16.096Z,89.00
2023-03-18T02:52:43.332Z,88.80
2023-03-18T02:55:11.173Z,89.00
2023-03-18T02:57:38.231Z,88.90
2023-03-18T03:00:05.929Z,88.80
2023-03-18T03:02:33.350Z,88.80
2023-03-18T03:05:03.133Z,88.80
2023-03-18T03:07:31.257Z,89.00
2023-03-18T03:10:01.807Z,88.80
2023-03-18T03:12:29.353Z,89.00
2023-03-18T03:14:58.009Z,89.00
2023-03-18T03:17:29.096Z,88.90
2023-03-18T03:19:57.953Z,89.40
2023-03-18T03:22:25.021Z,89.40
2023-03-18T03:24:52.524Z,89.30
2023-03-18T03:27:19.779Z,89.50
2023-03-18T03:29:49.968Z,89.60
2023-03-18T03:32:19.083Z,89.30
2023-03-18T03:34:48.345Z,89.40
2023-03-18T03:37:15.576Z,89.50
2023-03-18T03:39:43.014Z,89.40
2023-03-18T03:42:11.912Z,89.80
2023-03-18T03:44:38.953Z,89.90
2023-03-18T03:47:06.622Z,89.80
2023-03-18T03:49:33.946Z,89.90
2023-03-18T03:52:00.987Z,90.00
2023-03-18T03:54:34.985Z,90.00
2023-03-18T03:57:02.093Z,90.10
2023-03-18T03:59:31.652Z,90.20
2023-03-18T04:02:27.151Z,90.40
2023-03-18T04:04:55.221Z,90.30
2023-03-18T04:07:29.396Z,90.10
2023-03-18T04:09:57.088Z,90.30
2023-03-18T04:12:24.121Z,90.40
2023-03-18T04:14:59.091Z,90.30
2023-03-18T04:17:27.044Z,90.70
2023-03-18T04:19:54.823Z,90.40
2023-03-18T04:22:22.753Z,90.40
2023-03-18T04:24:50.332Z,90.40
2023-03-18T04:27:18.579Z,90.40
2023-03-18T04:29:46.695Z,90.50
2023-03-18T04:32:16.919Z,90.40
2023-03-18T04:34:46.444Z,90.60
2023-03-18T04:37:14.609Z,90.60
2023-03-18T04:39:44.564Z,90.60
2023-03-18T04:42:11.614Z,90.60
2023-03-18T04:44:38.887Z,90.80
2023-03-18T04:47:06.862Z,90.90
2023-03-18T04:49:35.389Z,91.10
2023-03-18T04:52:05.342Z,90.90
2023-03-18T04:54:34.263Z,91.10
2023-03-18T04:57:06.410Z,91.10
2023-03-18T04:59:37.643Z,91.10
2023-03-18T05:02:07.366Z,91.10
2023-03-18T05:04:35.476Z,91.20
2023-03-18T05:07:03.566Z,91.40
2023-03-18T05:09:35.707Z,91.40
2023-03-18T05:12:02.752Z,91.50
2023-03-18T05:14:35.893Z,91.50
2023-03-18T05:17:04.535Z,91.40
2023-03-18T05:19:33.861Z,91.50
2023-03-18T05:22:10.227Z,91.50
2023-03-18T05:24:38.000Z,91.50
2023-03-18T05:27:05.509Z,91.50
2023-03-18T05:29:40.527Z,91.60
2023-03-18T05:32:17.893Z,91.80
2023-03-18T05:34:51.494Z,91.60
2023-03-18T05:37:18.923Z,91.70
2023-03-18T05:39:56.762Z,91.70
2023-03-18T05:42:24.364Z,91.80
2023-03-18T05:44:51.711Z,91.70
2023-03-18T05:47:23.292Z,91.70
2023-03-18T05:50:03.215Z,91.60
2023-03-18T05:52:32.026Z,91.50
2023-03-18T05:55:03.291Z,91.50
2023-03-18T05:57:34.617Z,91.70
2023-03-18T06:00:06.468Z,91.50
2023-03-18T06:02:42.672Z,91.40
2023-03-18T06:05:10.693Z,91.50
2023-03-18T06:07:37.862Z,91.40
2023-03-18T06:10:06.293Z,91.40
2023-03-18T06:12:33.912Z,91.30
2023-03-18T06:15:00.980Z,91.20
2023-03-18T06:17:28.119Z,91.20
2023-03-18T06:19:55.367Z,91.10
2023-03-18T06:22:22.438Z,91.10
2023-03-18T06:24:49.964Z,90.90
2023-03-18T06:27:19.147Z,90.90
2023-03-18T06:29:52.730Z,90.90
2023-03-18T06:32:20.496Z,90.80
2023-03-18T06:34:47.671Z,90.60
2023-03-18T06:37:17.674Z,90.50
2023-03-18T06:39:45.458Z,90.50
2023-03-18T06:42:13.876Z,90.60
2023-03-18T06:45:19.635Z,90.90
2023-03-18T06:47:55.339Z,90.80
2023-03-18T06:50:24.622Z,90.50
2023-03-18T06:52:51.962Z,90.50
2023-03-18T06:55:26.374Z,90.30
2023-03-18T06:57:53.770Z,90.30
2023-03-18T07:00:26.277Z,90.20
2023-03-18T07:02:54.309Z,90.10
2023-03-18T07:05:26.512Z,89.70
2023-03-18T07:07:54.891Z,90.00
2023-03-18T07:10:29.842Z,89.10
2023-03-18T07:13:08.977Z,88.90
2023-03-18T07:15:43.701Z,87.80
2023-03-18T07:18:12.245Z,86.70
2023-03-18T07:20:40.292Z,86.60
2023-03-18T07:23:07.342Z,86.50
2023-03-18T07:25:34.475Z,86.00
2023-03-18T07:28:01.524Z,85.50
2023-03-18T07:30:30.462Z,84.90
2023-03-18T07:32:58.784Z,84.90
2023-03-18T07:35:27.926Z,84.80
2023-03-18T07:37:55.944Z,84.10
2023-03-18T07:40:23.626Z,83.20
2023-03-18T07:42:53.749Z,82.90
2023-03-18T07:45:20.961Z,83.00
2023-03-18T07:47:48.577Z,82.70
2023-03-18T07:50:17.360Z,83.70
2023-03-18T07:52:44.734Z,83.30
2023-03-18T07:55:12.308Z,83.20
2023-03-18T07:57:40.912Z,81.50
2023-03-18T08:00:10.547Z,82.00
2023-03-18T08:02:41.386Z,81.60
2023-03-18T08:05:11.429Z,81.60
2023-03-18T08:07:39.690Z,81.70
2023-03-18T08:10:09.455Z,81.30
2023-03-18T08:12:51.581Z,80.60
2023-03-18T08:15:20.273Z,80.30
2023-03-18T08:17:47.383Z,81.20
2023-03-18T08:20:15.976Z,80.40
2023-03-18T08:22:43.044Z,80.20
2023-03-18T08:25:11.750Z,80.30
2023-03-18T08:27:38.926Z,80.40
2023-03-18T08:30:07.017Z,80.10
2023-03-18T08:32:34.288Z,80.30
2023-03-18T08:35:02.173Z,80.30
2023-03-18T08:37:29.292Z,80.50
2023-03-18T08:39:56.298Z,79.90
2023-03-18T08:42:23.267Z,80.00
2023-03-18T08:44:52.116Z,81.70
2023-03-18T08:47:21.824Z,79.90
2023-03-18T08:49:51.380Z,79.30
2023-03-18T08:52:19.902Z,79.20
2023-03-18T08:54:47.960Z,78.20
2023-03-18T08:57:16.022Z,78.50
2023-03-18T08:59:43.971Z,77.60
2023-03-18T09:02:18.831Z,78.30
2023-03-18T09:04:48.229Z,77.90
2023-03-18T09:07:16.878Z,78.30
2023-03-18T09:09:47.142Z,78.40
2023-03-18T09:12:14.815Z,77.50
2023-03-18T09:14:44.333Z,78.00
2023-03-18T09:17:13.321Z,77.40
2023-03-18T09:19:42.975Z,77.10
2023-03-18T09:22:11.552Z,76.90
2023-03-18T09:24:38.505Z,77.50
2023-03-18T09:27:08.409Z,77.10
2023-03-18T09:29:35.372Z,75.80
2023-03-18T09:32:02.490Z,76.70
2023-03-18T09:34:29.447Z,75.90
2023-03-18T09:36:58.657Z,75.90
2023-03-18T09:39:26.235Z,75.70
2023-03-18T09:42:26.776Z,76.20
2023-03-18T09:45:03.218Z,75.80
2023-03-18T09:48:06.164Z,75.40
2023-03-18T09:50:54.949Z,75.00
2023-03-18T09:53:29.947Z,74.80
2023-03-18T09:56:01.348Z,75.40
2023-03-18T09:58:51.958Z,73.80
2023-03-18T10:01:22.879Z,74.50
2023-03-18T10:04:11.612Z,75.00
2023-03-18T10:06:43.485Z,74.10
2023-03-18T10:09:17.438Z,73.50
2023-03-18T10:11:51.135Z,73.30
2023-03-18T10:14:27.328Z,72.80
2023-03-18T10:17:12.907Z,73.60
2023-03-18T10:19:51.543Z,71.80
2023-03-18T10:22:55.189Z,72.60
2023-03-18T10:25:47.579Z,73.20
2023-03-18T10:28:31.531Z,69.70
2023-03-18T10:31:37.734Z,69.60
2023-03-18T10:34:16.821Z,71.00
2023-03-18T10:37:07.373Z,69.60
2023-03-18T10:39:37.127Z,72.20
2023-03-18T10:42:23.297Z,70.20
2023-03-18T10:44:52.438Z,70.00
2023-03-18T10:47:25.261Z,70.00
2023-03-18T10:50:17.364Z,69.20
2023-03-18T10:52:56.377Z,69.30
2023-03-18T10:55:29.379Z,68.50
2023-03-18T10:57:58.167Z,68.30
2023-03-18T11:00:46.910Z,67.50
2023-03-18T11:03:36.497Z,67.70
2023-03-18T11:06:06.026Z,68.60
2023-03-18T11:08:36.566Z,69.50
2023-03-18T11:11:29.057Z,67.60
2023-03-18T11:13:57.570Z,70.00
2023-03-18T11:16:30.796Z,66.90
2023-03-18T11:18:59.310Z,65.70
2023-03-18T11:21:29.404Z,66.50
2023-03-18T11:24:35.033Z,66.00
2023-03-18T11:27:04.450Z,65.60
2023-03-18T11:29:40.795Z,65.80
2023-03-18T11:32:31.394Z,65.40
2023-03-18T11:35:02.190Z,66.60
2023-03-18T11:37:41.243Z,65.40
2023-03-18T11:40:14.264Z,65.00
2023-03-18T11:42:42.576Z,63.60
2023-03-18T11:45:44.299Z,64.10
2023-03-18T11:48:42.666Z,65.00
2023-03-18T11:51:17.515Z,64.20
2023-03-18T11:54:11.473Z,62.50
2023-03-18T11:57:22.963Z,62.00
2023-03-18T12:00:20.395Z,62.00
2023-03-18T12:03:01.444Z,64.40
2023-03-18T12:06:11.158Z,61.00
2023-03-18T12:09:03.324Z,65.20
2023-03-18T12:11:55.292Z,60.00
2023-03-18T12:14:39.829Z,61.00
2023-03-18T12:17:16.120Z,61.30
2023-03-18T12:20:04.389Z,60.10
2023-03-18T12:22:57.726Z,61.00
2023-03-18T12:25:50.635Z,59.30
2023-03-18T12:28:36.273Z,60.60
2023-03-18T12:31:28.387Z,59.10
2023-03-18T12:34:01.660Z,60.20
2023-03-18T12:36:50.868Z,57.80
2023-03-18T12:39:39.110Z,56.10
2023-03-18T12:42:30.616Z,56.40
2023-03-18T12:45:12.350Z,53.60
2023-03-18T12:47:51.802Z,52.40
2023-03-18T12:50:38.270Z,53.30
2023-03-18T12:53:16.553Z,54.20
2023-03-18T12:55:51.065Z,53.90
2023-03-18T12:58:42.205Z,53.30
2023-03-18T13:01:18.181Z,52.20
2023-03-18T13:04:01.938Z,50.60
2023-03-18T13:06:44.727Z,49.50
2023-03-18T13:09:37.215Z,47.40
2023-03-18T13:12:22.256Z,48.00
2023-03-18T13:15:03.657Z,48.90
2023-03-18T13:17:40.573Z,49.10
2023-03-18T13:20:23.828Z,48.60
2023-03-18T13:23:06.851Z,49.50
2023-03-18T13:25:57.040Z,50.10
2023-03-18T13:28:45.114Z,50.20
2023-03-18T13:31:39.157Z,51.50
2023-03-18T13:34:39.138Z,53.30
2023-03-18T13:37:33.862Z,55.10
2023-03-18T13:40:09.641Z,55.10
2023-03-18T13:42:39.938Z,55.50
2023-03-18T13:45:07.064Z,53.70
2023-03-18T13:47:38.019Z,51.70
2023-03-18T13:50:23.029Z,51.60
2023-03-18T13:52:58.188Z,48.40
2023-03-18T13:55:47.549Z,48.70
2023-03-18T13:58:44.833Z,48.50
2023-03-18T14:01:28.968Z,47.90
2023-03-18T14:04:20.760Z,46.60
2023-03-18T14:07:14.595Z,46.20
2023-03-18T14:10:15.300Z,47.60
2023-03-18T14:12:47.488Z,48.70
2023-03-18T14:15:34.491Z,50.60
2023-03-18T14:18:01.884Z,49.10
2023-03-18T14:20:37.701Z,50.40
2023-03-18T14:23:28.874Z,48.90
2023-03-18T14:26:19.555Z,48.90
2023-03-18T14:28:56.225Z,47.80
2023-03-18T14:31:38.640Z,47.20
2023-03-18T14:34:18.764Z,47.40
2023-03-18T14:36:54.801Z,47.60
2023-03-18T14:39:25.279Z,50.00
2023-03-18T14:41:55.780Z,47.60
2023-03-18T14:44:28.074Z,48.50
2023-03-18T14:47:00.679Z,48.70
2023-03-18T14:49:51.646Z,49.60
2023-03-18T14:52:40.082Z,46.90
2023-03-18T14:55:19.484Z,46.00
2023-03-18T14:57:47.198Z,45.70
2023-03-18T15:00:20.654Z,46.90
2023-03-18T15:02:54.120Z,47.90
2023-03-18T15:05:37.481Z,50.00
2023-03-18T15:08:10.792Z,50.50
2023-03-18T15:10:40.268Z,52.00
2023-03-18T15:13:15.731Z,53.30
2023-03-18T15:15:43.059Z,54.90
2023-03-18T15:18:25.677Z,55.30
2023-03-18T15:21:00.540Z,56.70
2023-03-18T15:24:00.143Z,57.50
2023-03-18T15:26:36.165Z,58.70
2023-03-18T15:29:26.471Z,58.70
2023-03-18T15:31:54.691Z,58.70
2023-03-18T15:34:34.650Z,59.70
2023-03-18T15:37:04.876Z,59.50
2023-03-18T15:39:40.160Z,60.40
2023-03-18T15:42:19.014Z,60.60
2023-03-18T15:44:54.748Z,61.20
2023-03-18T15:47:29.613Z,61.40
2023-03-18T15:50:00.548Z,61.70
2023-03-18T15:52:33.504Z,62.10
2023-03-18T15:55:02.439Z,63.60
2023-03-18T15:57:40.549Z,63.90
2023-03-18T16:00:09.803Z,63.20
2023-03-18T16:02:39.327Z,62.40
2023-03-18T16:05:18.021Z,63.10
2023-03-18T16:07:48.128Z,63.00
2023-03-18T16:10:19.403Z,63.30
2023-03-18T16:12:48.088Z,63.70
2023-03-18T16:15:23.549Z,64.00
2023-03-18T16:17:56.053Z,64.00
2023-03-18T16:20:29.293Z,63.50
2023-03-18T16:22:57.472Z,64.10
2023-03-18T16:25:25.995Z,64.20
2023-03-18T16:27:56.798Z,64.20
2023-03-18T16:30:29.736Z,64.50
2023-03-18T16:32:57.688Z,64.80
2023-03-18T16:35:28.284Z,64.80
2023-03-18T16:37:56.545Z,65.90
2023-03-18T16:40:27.656Z,65.60
2023-03-18T16:42:55.856Z,66.50
2023-03-18T16:45:32.838Z,65.30
2023-03-18T16:48:06.893Z,65.60
2023-03-18T16:50:37.245Z,66.00
2023-03-18T16:53:18.619Z,65.90
2023-03-18T16:56:24.508Z,67.00
2023-03-18T16:58:53.353Z,66.10
2023-03-18T17:01:21.541Z,66.60
2023-03-18T17:03:49.858Z,66.90
2023-03-18T17:06:17.574Z,67.20
2023-03-18T17:08:45.312Z,68.10
2023-03-18T17:11:18.380Z,67.40
2023-03-18T17:13:46.428Z,68.10
2023-03-18T17:16:20.176Z,67.30
2023-03-18T17:18:49.641Z,67.90
2023-03-18T17:21:17.095Z,68.20
2023-03-18T17:23:47.967Z,68.40
2023-03-18T17:26:15.698Z,68.70
2023-03-18T17:28:45.952Z,68.80
2023-03-18T17:31:13.830Z,68.80
2023-03-18T17:33:43.438Z,68.70
2023-03-18T17:36:10.871Z,69.20
2023-03-18T17:38:38.658Z,70.40
2023-03-18T17:41:18.509Z,69.20
2023-03-18T17:43:45.739Z,69.60
2023-03-18T17:46:13.336Z,70.00
2023-03-18T17:48:41.602Z,70.80
2023-03-18T17:51:21.873Z,70.40
2023-03-18T17:54:00.393Z,71.60
2023-03-18T17:56:28.991Z,70.90
2023-03-18T17:58:58.026Z,71.60
2023-03-18T18:01:28.889Z,71.60
2023-03-18T18:04:01.857Z,72.60
2023-03-18T18:06:30.601Z,71.60
2023-03-18T18:09:01.989Z,71.70
2023-03-18T18:11:38.114Z,71.80
2023-03-18T18:14:18.544Z,72.80
2023-03-18T18:16:50.316Z,72.50
2023-03-18T18:19:18.922Z,72.90
2023-03-18T18:21:48.286Z,73.00
2023-03-18T18:24:34.956Z,73.30
2023-03-18T18:27:04.216Z,73.60
2023-03-18T18:29:35.205Z,74.10
2023-03-18T18:32:05.210Z,73.60
2023-03-18T18:34:34.032Z,74.00
2023-03-18T18:37:01.738Z,74.50
2023-03-18T18:39:29.694Z,74.70
2023-03-18T18:41:59.150Z,74.50
2023-03-18T18:44:26.847Z,75.50
2023-03-18T18:46:54.948Z,76.10
2023-03-18T18:49:24.257Z,74.90
2023-03-18T18:51:55.398Z,76.10
2023-03-18T18:54:28.923Z,76.30
2023-03-18T18:57:00.970Z,75.20
2023-03-18T18:59:34.561Z,75.60
2023-03-18T19:02:05.321Z,76.50
2023-03-18T19:04:36.604Z,75.80
2023-03-18T19:07:08.631Z,77.00
2023-03-18T19:09:37.136Z,76.20
2023-03-18T19:12:14.409Z,77.20
2023-03-18T19:14:42.530Z,76.20
2023-03-18T19:17:16.638Z,76.00
2023-03-18T19:19:46.034Z,75.40
2023-03-18T19:22:19.100Z,75.60
2023-03-18T19:24:51.131Z,75.30
2023-03-18T19:27:33.247Z,74.40
2023-03-18T19:30:14.457Z,74.80
2023-03-18T19:32:45.071Z,75.10
2023-03-18T19:35:14.552Z,75.10
2023-03-18T19:37:46.366Z,74.80
2023-03-18T19:40:30.267Z,73.80
2023-03-18T19:43:00.512Z,74.30
2023-03-18T19:45:28.354Z,74.50
2023-03-18T19:48:00.314Z,74.20
2023-03-18T19:50:29.229Z,75.30
2023-03-18T19:53:00.691Z,75.40
2023-03-18T19:55:30.177Z,75.50
2023-03-18T19:58:00.135Z,75.60
2023-03-18T20:00:29.718Z,74.80
2023-03-18T20:02:58.945Z,75.90
2023-03-18T20:05:26.471Z,75.50
2023-03-18T20:07:54.348Z,76.80
2023-03-18T20:10:25.255Z,76.00
2023-03-18T20:12:52.883Z,76.90
2023-03-18T20:15:27.655Z,78.40
2023-03-18T20:17:59.340Z,79.30
2023-03-18T20:20:33.327Z,78.20
2023-03-18T20:23:05.228Z,78.80
2023-03-18T20:25:42.766Z,77.80
2023-03-18T20:28:24.825Z,79.60
2023-03-18T20:30:56.798Z,80.80
2023-03-18T20:33:25.688Z,80.30
2023-03-18T20:35:55.092Z,79.10
2023-03-18T20:38:38.646Z,80.00
2023-03-18T20:41:08.865Z,79.50
2023-03-18T20:43:36.528Z,81.00
2023-03-18T20:46:07.595Z,81.30
2023-03-18T20:48:39.805Z,82.40
2023-03-18T20:51:38.062Z,81.30
2023-03-18T20:54:24.449Z,83.30
2023-03-18T20:56:52.610Z,83.70
2023-03-18T20:59:22.823Z,82.90
2023-03-18T21:01:54.526Z,84.50
2023-03-18T21:04:23.383Z,84.10
2023-03-18T21:06:53.720Z,84.20
2023-03-18T21:09:23.361Z,85.10
2023-03-18T21:11:51.320Z,85.20
2023-03-18T21:14:19.354Z,86.00
2023-03-18T21:16:46.897Z,86.90
2023-03-18T21:19:14.391Z,87.60
2023-03-18T21:21:42.157Z,87.50
2023-03-18T21:24:25.865Z,86.60
2023-03-18T21:27:04.159Z,85.80
2023-03-18T21:29:33.799Z,85.20
2023-03-18T21:32:03.017Z,83.90
2023-03-18T21:34:32.978Z,83.90
2023-03-18T21:37:02.985Z,83.30
2023-03-18T21:39:30.483Z,82.50
2023-03-18T21:41:57.865Z,82.40
2023-03-18T21:44:25.067Z,82.10
2023-03-18T21:46:53.796Z,82.20
2023-03-18T21:49:23.262Z,82.30
2023-03-18T21:51:50.959Z,83.40
2023-03-18T21:54:19.633Z,83.40
2023-03-18T21:56:46.915Z,82.60
2023-03-18T21:59:15.113Z,82.90
2023-03-18T22:01:42.571Z,83.90
2023-03-18T22:04:09.833Z,83.40
2023-03-18T22:06:38.624Z,82.70
2023-03-18T22:09:06.247Z,82.60
2023-03-18T22:11:33.298Z,82.30
2023-03-18T22:14:00.323Z,81.90
2023-03-18T22:16:27.618Z,82.90
2023-03-18T22:18:54.576Z,82.40
2023-03-18T22:21:25.390Z,81.70
2023-03-18T22:23:53.137Z,81.50
2023-03-18T22:26:21.113Z,82.30
2023-03-18T22:28:49.742Z,82.50
2023-03-18T22:31:27.461Z,83.20
2023-03-18T22:33:55.462Z,82.10
2023-03-18T22:36:23.833Z,83.00
2023-03-18T22:38:51.376Z,81.80
2023-03-18T22:41:24.255Z,82.00
2023-03-18T22:43:51.299Z,83.20
2023-03-18T22:46:18.371Z,82.60
2023-03-18T22:48:45.836Z,83.60
2023-03-18T22:51:24.278Z,84.40
2023-03-18T22:53:53.612Z,85.90
2023-03-18T22:56:24.024Z,85.30
2023-03-18T22:58:51.855Z,85.80
2023-03-18T23:01:27.760Z,85.00
2023-03-18T23:03:56.188Z,85.90
2023-03-18T23:06:24.818Z,86.30
2023-03-18T23:08:52.474Z,86.80
2023-03-18T23:11:19.413Z,86.30
2023-03-18T23:13:50.094Z,85.70
2023-03-18T23:16:20.662Z,86.40
2023-03-18T23:18:48.519Z,87.00
2023-03-18T23:21:18.078Z,87.10
2023-03-18T23:23:46.470Z,86.80
2023-03-18T23:26:13.785Z,86.80
2023-03-18T23:28:44.953Z,87.50
2023-03-18T23:31:17.180Z,87.40
2023-03-18T23:33:44.662Z,88.30
2023-03-18T23:36:12.425Z,88.30
2023-03-18T23:38:39.851Z,89.00
2023-03-18T23:41:07.358Z,88.90
2023-03-18T23:43:34.483Z,90.10
2023-03-18T23:46:02.297Z,90.40
2023-03-18T23:48:29.487Z,90.80
2023-03-18T23:50:56.700Z,90.60
2023-03-18T23:53:25.073Z,90.60
2023-03-18T23:55:52.679Z,90.90
2023-03-18T23:58:19.865Z,91.50
